sensor_id;sensor_type;location;lat;lon;timestamp;P1;durP1;ratioP1;P2;durP2;ratioP2
61531;SDS011;47397;48.194;11.632;2023-05-29T00:00:37;9.57;;;6.57;;
61531;SDS011;47397;48.194;11.632;2023-05-29T00:01:37;12.15;;;7.18;;
61531;SDS011;47397;48.194;11.632;2023-05-29T00:02:37;10.55;;;6.65;;
61531;SDS011;47397;48.194;11.632;2023-05-29T00:03:38;11.18;;;7.50;;
61531;SDS011;47397;48.194;11.632;2023-05-29T00:04:38;9.15;;;6.53;;
61531;SDS011;47397;48.194;11.632;2023-05-29T00:05:38;10.57;;;7.30;;
61531;SDS011;47397;48.194;11.632;2023-05-29T00:06:39;10.43;;;6.80;;
61531;SDS011;47397;48.194;11.632;2023-05-29T00:07:39;9.27;;;6.22;;
61531;SDS011;47397;48.194;11.632;2023-05-29T00:08:40;9.40;;;6.68;;
61531;SDS011;47397;48.194;11.632;2023-05-29T00:09:41;9.13;;;6.72;;
61531;SDS011;47397;48.194;11.632;2023-05-29T00:10:41;10.75;;;6.40;;
61531;SDS011;47397;48.194;11.632;2023-05-29T00:11:42;13.30;;;7.53;;
61531;SDS011;47397;48.194;11.632;2023-05-29T00:12:42;9.05;;;6.72;;
61531;SDS011;47397;48.194;11.632;2023-05-29T00:13:44;10.90;;;6.95;;
61531;SDS011;47397;48.194;11.632;2023-05-29T00:14:44;9.93;;;6.78;;
61531;SDS011;47397;48.194;11.632;2023-05-29T00:15:45;12.23;;;7.35;;
61531;SDS011;47397;48.194;11.632;2023-05-29T00:16:46;10.02;;;6.60;;
61531;SDS011;47397;48.194;11.632;2023-05-29T00:17:46;11.25;;;6.47;;
61531;SDS011;47397;48.194;11.632;2023-05-29T00:18:47;10.68;;;7.40;;
61531;SDS011;47397;48.194;11.632;2023-05-29T00:19:47;11.85;;;6.85;;
61531;SDS011;47397;48.194;11.632;2023-05-29T00:20:48;10.07;;;6.95;;
61531;SDS011;47397;48.194;11.632;2023-05-29T00:21:48;10.40;;;7.20;;
61531;SDS011;47397;48.194;11.632;2023-05-29T00:22:48;11.85;;;7.20;;
61531;SDS011;47397;48.194;11.632;2023-05-29T00:23:49;9.18;;;6.78;;
61531;SDS011;47397;48.194;11.632;2023-05-29T00:24:49;11.30;;;6.82;;
61531;SDS011;47397;48.194;11.632;2023-05-29T00:25:50;9.75;;;7.00;;
61531;SDS011;47397;48.194;11.632;2023-05-29T00:26:50;9.75;;;6.80;;
61531;SDS011;47397;48.194;11.632;2023-05-29T00:27:50;10.95;;;6.68;;
61531;SDS011;47397;48.194;11.632;2023-05-29T00:28:52;10.88;;;6.90;;
61531;SDS011;47397;48.194;11.632;2023-05-29T00:29:52;9.88;;;6.78;;
61531;SDS011;47397;48.194;11.632;2023-05-29T00:30:53;10.18;;;6.72;;
61531;SDS011;47397;48.194;11.632;2023-05-29T00:31:53;11.00;;;6.97;;
61531;SDS011;47397;48.194;11.632;2023-05-29T00:32:54;11.38;;;7.07;;
61531;SDS011;47397;48.194;11.632;2023-05-29T00:33:54;9.20;;;6.38;;
61531;SDS011;47397;48.194;11.632;2023-05-29T00:34:54;9.25;;;6.60;;
61531;SDS011;47397;48.194;11.632;2023-05-29T00:35:55;9.98;;;6.53;;
61531;SDS011;47397;48.194;11.632;2023-05-29T00:36:55;10.57;;;6.38;;
61531;SDS011;47397;48.194;11.632;2023-05-29T00:37:56;10.13;;;6.80;;
61531;SDS011;47397;48.194;11.632;2023-05-29T00:38:57;9.70;;;6.93;;
61531;SDS011;47397;48.194;11.632;2023-05-29T00:39:57;10.75;;;6.60;;
61531;SDS011;47397;48.194;11.632;2023-05-29T00:40:58;9.43;;;6.30;;
61531;SDS011;47397;48.194;11.632;2023-05-29T00:41:58;10.38;;;6.72;;
61531;SDS011;47397;48.194;11.632;2023-05-29T00:42:59;11.05;;;7.13;;
61531;SDS011;47397;48.194;11.632;2023-05-29T00:44:00;8.95;;;6.85;;
61531;SDS011;47397;48.194;11.632;2023-05-29T00:45:01;11.02;;;6.95;;
61531;SDS011;47397;48.194;11.632;2023-05-29T00:46:01;12.23;;;7.00;;
61531;SDS011;47397;48.194;11.632;2023-05-29T00:47:02;12.07;;;7.50;;
61531;SDS011;47397;48.194;11.632;2023-05-29T00:48:03;10.63;;;7.00;;
61531;SDS011;47397;48.194;11.632;2023-05-29T00:49:04;10.63;;;7.10;;
61531;SDS011;47397;48.194;11.632;2023-05-29T00:50:05;10.07;;;6.55;;
61531;SDS011;47397;48.194;11.632;2023-05-29T00:51:08;9.73;;;6.65;;
61531;SDS011;47397;48.194;11.632;2023-05-29T00:52:09;11.10;;;7.22;;
61531;SDS011;47397;48.194;11.632;2023-05-29T00:53:10;10.30;;;6.75;;
61531;SDS011;47397;48.194;11.632;2023-05-29T00:54:11;9.48;;;6.97;;
61531;SDS011;47397;48.194;11.632;2023-05-29T00:55:14;10.27;;;6.60;;
61531;SDS011;47397;48.194;11.632;2023-05-29T00:56:15;9.43;;;6.38;;
61531;SDS011;47397;48.194;11.632;2023-05-29T00:57:17;9.43;;;6.90;;
61531;SDS011;47397;48.194;11.632;2023-05-29T00:58:18;10.52;;;6.50;;
61531;SDS011;47397;48.194;11.632;2023-05-29T00:59:21;9.88;;;6.63;;
61531;SDS011;47397;48.194;11.632;2023-05-29T01:00:21;9.60;;;6.80;;
61531;SDS011;47397;48.194;11.632;2023-05-29T01:01:22;10.52;;;7.13;;
61531;SDS011;47397;48.194;11.632;2023-05-29T01:02:23;10.20;;;7.03;;
61531;SDS011;47397;48.194;11.632;2023-05-29T01:03:23;9.90;;;6.72;;
61531;SDS011;47397;48.194;11.632;2023-05-29T01:04:24;10.32;;;6.78;;
61531;SDS011;47397;48.194;11.632;2023-05-29T01:05:26;12.05;;;6.95;;
61531;SDS011;47397;48.194;11.632;2023-05-29T01:06:27;9.60;;;6.70;;
61531;SDS011;47397;48.194;11.632;2023-05-29T01:07:27;10.02;;;6.53;;
61531;SDS011;47397;48.194;11.632;2023-05-29T01:08:28;10.45;;;6.95;;
61531;SDS011;47397;48.194;11.632;2023-05-29T01:09:28;9.50;;;7.05;;
61531;SDS011;47397;48.194;11.632;2023-05-29T01:10:29;10.77;;;6.88;;
61531;SDS011;47397;48.194;11.632;2023-05-29T01:11:31;12.20;;;7.15;;
61531;SDS011;47397;48.194;11.632;2023-05-29T01:12:37;10.35;;;6.57;;
61531;SDS011;47397;48.194;11.632;2023-05-29T01:13:43;9.57;;;6.28;;
61531;SDS011;47397;48.194;11.632;2023-05-29T01:14:51;9.52;;;6.25;;
61531;SDS011;47397;48.194;11.632;2023-05-29T01:16:06;11.52;;;6.97;;
61531;SDS011;47397;48.194;11.632;2023-05-29T01:17:14;14.70;;;7.15;;
61531;SDS011;47397;48.194;11.632;2023-05-29T01:18:19;9.52;;;6.75;;
61531;SDS011;47397;48.194;11.632;2023-05-29T01:19:37;11.65;;;6.63;;
61531;SDS011;47397;48.194;11.632;2023-05-29T01:20:47;11.32;;;6.45;;
61531;SDS011;47397;48.194;11.632;2023-05-29T01:21:56;10.95;;;6.70;;
61531;SDS011;47397;48.194;11.632;2023-05-29T01:23:10;11.48;;;6.40;;
61531;SDS011;47397;48.194;11.632;2023-05-29T01:24:37;9.35;;;6.72;;
61531;SDS011;47397;48.194;11.632;2023-05-29T01:25:50;9.88;;;6.40;;
61531;SDS011;47397;48.194;11.632;2023-05-29T01:27:02;9.20;;;6.30;;
61531;SDS011;47397;48.194;11.632;2023-05-29T01:28:04;11.07;;;7.03;;
61531;SDS011;47397;48.194;11.632;2023-05-29T01:29:09;9.30;;;6.72;;
61531;SDS011;47397;48.194;11.632;2023-05-29T01:30:13;10.90;;;6.75;;
61531;SDS011;47397;48.194;11.632;2023-05-29T01:31:16;9.65;;;6.47;;
61531;SDS011;47397;48.194;11.632;2023-05-29T01:32:20;10.05;;;6.90;;
61531;SDS011;47397;48.194;11.632;2023-05-29T01:33:21;9.90;;;6.35;;
61531;SDS011;47397;48.194;11.632;2023-05-29T01:34:22;10.02;;;7.05;;
61531;SDS011;47397;48.194;11.632;2023-05-29T01:35:22;10.18;;;6.97;;
61531;SDS011;47397;48.194;11.632;2023-05-29T01:36:23;11.07;;;6.68;;
61531;SDS011;47397;48.194;11.632;2023-05-29T01:37:24;10.32;;;7.00;;
61531;SDS011;47397;48.194;11.632;2023-05-29T01:38:24;10.65;;;6.97;;
61531;SDS011;47397;48.194;11.632;2023-05-29T01:39:25;10.75;;;7.03;;
61531;SDS011;47397;48.194;11.632;2023-05-29T01:40:26;12.13;;;6.78;;
61531;SDS011;47397;48.194;11.632;2023-05-29T01:41:26;12.02;;;7.35;;
61531;SDS011;47397;48.194;11.632;2023-05-29T01:42:30;11.15;;;7.10;;
61531;SDS011;47397;48.194;11.632;2023-05-29T01:43:30;10.85;;;6.47;;
61531;SDS011;47397;48.194;11.632;2023-05-29T01:44:31;10.43;;;6.43;;
61531;SDS011;47397;48.194;11.632;2023-05-29T01:45:32;11.40;;;7.60;;
61531;SDS011;47397;48.194;11.632;2023-05-29T01:46:33;11.50;;;6.55;;
61531;SDS011;47397;48.194;11.632;2023-05-29T01:47:34;10.25;;;6.72;;
61531;SDS011;47397;48.194;11.632;2023-05-29T01:48:35;8.63;;;6.15;;
61531;SDS011;47397;48.194;11.632;2023-05-29T01:49:36;10.15;;;7.22;;
61531;SDS011;47397;48.194;11.632;2023-05-29T01:50:36;9.88;;;7.32;;
61531;SDS011;47397;48.194;11.632;2023-05-29T01:51:38;12.13;;;7.13;;
61531;SDS011;47397;48.194;11.632;2023-05-29T01:52:39;9.77;;;6.85;;
61531;SDS011;47397;48.194;11.632;2023-05-29T01:53:39;10.02;;;7.05;;
61531;SDS011;47397;48.194;11.632;2023-05-29T01:54:41;10.85;;;6.72;;
61531;SDS011;47397;48.194;11.632;2023-05-29T01:55:42;11.48;;;7.25;;
61531;SDS011;47397;48.194;11.632;2023-05-29T01:56:42;11.13;;;6.75;;
61531;SDS011;47397;48.194;11.632;2023-05-29T01:57:45;10.85;;;7.03;;
61531;SDS011;47397;48.194;11.632;2023-05-29T01:58:46;10.82;;;7.15;;
61531;SDS011;47397;48.194;11.632;2023-05-29T01:59:48;11.15;;;7.43;;
61531;SDS011;47397;48.194;11.632;2023-05-29T02:00:48;10.90;;;6.88;;
61531;SDS011;47397;48.194;11.632;2023-05-29T02:01:49;13.00;;;6.78;;
61531;SDS011;47397;48.194;11.632;2023-05-29T02:02:49;10.48;;;7.28;;
61531;SDS011;47397;48.194;11.632;2023-05-29T02:03:50;11.27;;;7.15;;
61531;SDS011;47397;48.194;11.632;2023-05-29T02:04:51;9.73;;;6.95;;
61531;SDS011;47397;48.194;11.632;2023-05-29T02:05:51;12.10;;;7.22;;
61531;SDS011;47397;48.194;11.632;2023-05-29T02:06:51;10.38;;;7.03;;
61531;SDS011;47397;48.194;11.632;2023-05-29T02:07:52;11.18;;;7.63;;
61531;SDS011;47397;48.194;11.632;2023-05-29T02:08:52;12.00;;;7.55;;
61531;SDS011;47397;48.194;11.632;2023-05-29T02:09:52;9.93;;;6.35;;
61531;SDS011;47397;48.194;11.632;2023-05-29T02:10:53;11.48;;;7.47;;
61531;SDS011;47397;48.194;11.632;2023-05-29T02:11:53;11.02;;;7.45;;
61531;SDS011;47397;48.194;11.632;2023-05-29T02:12:55;9.13;;;7.40;;
61531;SDS011;47397;48.194;11.632;2023-05-29T02:13:56;9.85;;;6.90;;
61531;SDS011;47397;48.194;11.632;2023-05-29T02:14:56;10.85;;;7.07;;
61531;SDS011;47397;48.194;11.632;2023-05-29T02:15:56;13.63;;;6.72;;
61531;SDS011;47397;48.194;11.632;2023-05-29T02:16:57;10.90;;;7.05;;
61531;SDS011;47397;48.194;11.632;2023-05-29T02:17:57;9.90;;;7.13;;
61531;SDS011;47397;48.194;11.632;2023-05-29T02:18:58;9.27;;;7.13;;
61531;SDS011;47397;48.194;11.632;2023-05-29T02:19:58;11.30;;;6.65;;
61531;SDS011;47397;48.194;11.632;2023-05-29T02:20:58;10.52;;;7.05;;
61531;SDS011;47397;48.194;11.632;2023-05-29T02:21:59;10.68;;;7.18;;
61531;SDS011;47397;48.194;11.632;2023-05-29T02:22:59;11.63;;;7.28;;
61531;SDS011;47397;48.194;11.632;2023-05-29T02:24:00;9.43;;;6.50;;
61531;SDS011;47397;48.194;11.632;2023-05-29T02:25:00;10.18;;;6.82;;
61531;SDS011;47397;48.194;11.632;2023-05-29T02:26:00;11.15;;;7.13;;
61531;SDS011;47397;48.194;11.632;2023-05-29T02:27:01;10.20;;;7.07;;
61531;SDS011;47397;48.194;11.632;2023-05-29T02:28:03;9.70;;;6.47;;
61531;SDS011;47397;48.194;11.632;2023-05-29T02:29:03;11.90;;;7.22;;
61531;SDS011;47397;48.194;11.632;2023-05-29T02:30:04;10.15;;;7.28;;
61531;SDS011;47397;48.194;11.632;2023-05-29T02:31:05;11.10;;;6.72;;
61531;SDS011;47397;48.194;11.632;2023-05-29T02:32:06;10.55;;;7.00;;
61531;SDS011;47397;48.194;11.632;2023-05-29T02:33:06;13.48;;;7.40;;
61531;SDS011;47397;48.194;11.632;2023-05-29T02:34:07;12.68;;;6.68;;
61531;SDS011;47397;48.194;11.632;2023-05-29T02:35:07;10.40;;;7.40;;
61531;SDS011;47397;48.194;11.632;2023-05-29T02:36:08;10.95;;;7.35;;
61531;SDS011;47397;48.194;11.632;2023-05-29T02:37:08;9.75;;;7.28;;
61531;SDS011;47397;48.194;11.632;2023-05-29T02:38:09;10.38;;;7.03;;
61531;SDS011;47397;48.194;11.632;2023-05-29T02:39:09;10.75;;;7.53;;
61531;SDS011;47397;48.194;11.632;2023-05-29T02:40:10;11.65;;;7.50;;
61531;SDS011;47397;48.194;11.632;2023-05-29T02:41:10;10.27;;;7.68;;
61531;SDS011;47397;48.194;11.632;2023-05-29T02:42:11;11.02;;;7.03;;
61531;SDS011;47397;48.194;11.632;2023-05-29T02:43:13;10.75;;;7.13;;
61531;SDS011;47397;48.194;11.632;2023-05-29T02:44:14;10.30;;;6.68;;
61531;SDS011;47397;48.194;11.632;2023-05-29T02:45:14;10.50;;;7.03;;
61531;SDS011;47397;48.194;11.632;2023-05-29T02:46:14;11.48;;;6.97;;
61531;SDS011;47397;48.194;11.632;2023-05-29T02:47:15;10.93;;;7.28;;
61531;SDS011;47397;48.194;11.632;2023-05-29T02:48:15;12.75;;;7.53;;
61531;SDS011;47397;48.194;11.632;2023-05-29T02:49:15;11.27;;;7.18;;
61531;SDS011;47397;48.194;11.632;2023-05-29T02:50:16;10.75;;;7.00;;
61531;SDS011;47397;48.194;11.632;2023-05-29T02:51:16;10.80;;;6.95;;
61531;SDS011;47397;48.194;11.632;2023-05-29T02:52:17;10.40;;;6.80;;
61531;SDS011;47397;48.194;11.632;2023-05-29T02:53:17;10.60;;;6.90;;
61531;SDS011;47397;48.194;11.632;2023-05-29T02:54:18;10.82;;;7.18;;
61531;SDS011;47397;48.194;11.632;2023-05-29T02:55:18;10.90;;;6.97;;
61531;SDS011;47397;48.194;11.632;2023-05-29T02:56:19;10.85;;;7.07;;
61531;SDS011;47397;48.194;11.632;2023-05-29T02:57:19;9.77;;;6.47;;
61531;SDS011;47397;48.194;11.632;2023-05-29T02:58:21;10.13;;;6.78;;
61531;SDS011;47397;48.194;11.632;2023-05-29T02:59:21;9.18;;;6.90;;
61531;SDS011;47397;48.194;11.632;2023-05-29T03:00:22;12.35;;;7.43;;
61531;SDS011;47397;48.194;11.632;2023-05-29T03:01:22;9.80;;;6.90;;
61531;SDS011;47397;48.194;11.632;2023-05-29T03:02:22;9.98;;;6.68;;
61531;SDS011;47397;48.194;11.632;2023-05-29T03:03:23;10.93;;;6.90;;
61531;SDS011;47397;48.194;11.632;2023-05-29T03:04:23;9.90;;;6.80;;
61531;SDS011;47397;48.194;11.632;2023-05-29T03:05:24;10.05;;;7.13;;
61531;SDS011;47397;48.194;11.632;2023-05-29T03:06:24;10.30;;;6.43;;
61531;SDS011;47397;48.194;11.632;2023-05-29T03:07:25;11.40;;;7.72;;
61531;SDS011;47397;48.194;11.632;2023-05-29T03:08:25;11.20;;;7.35;;
61531;SDS011;47397;48.194;11.632;2023-05-29T03:09:26;12.73;;;7.20;;
61531;SDS011;47397;48.194;11.632;2023-05-29T03:10:26;10.90;;;7.38;;
61531;SDS011;47397;48.194;11.632;2023-05-29T03:11:27;10.57;;;6.90;;
61531;SDS011;47397;48.194;11.632;2023-05-29T03:12:27;9.85;;;7.05;;
61531;SDS011;47397;48.194;11.632;2023-05-29T03:13:29;8.95;;;6.68;;
61531;SDS011;47397;48.194;11.632;2023-05-29T03:14:29;11.52;;;7.15;;
61531;SDS011;47397;48.194;11.632;2023-05-29T03:15:30;9.75;;;6.72;;
61531;SDS011;47397;48.194;11.632;2023-05-29T03:16:30;11.00;;;6.95;;
61531;SDS011;47397;48.194;11.632;2023-05-29T03:17:30;9.23;;;6.38;;
61531;SDS011;47397;48.194;11.632;2023-05-29T03:18:31;11.32;;;6.85;;
61531;SDS011;47397;48.194;11.632;2023-05-29T03:19:31;10.75;;;7.00;;
61531;SDS011;47397;48.194;11.632;2023-05-29T03:20:32;9.95;;;6.72;;
61531;SDS011;47397;48.194;11.632;2023-05-29T03:21:32;10.02;;;7.32;;
61531;SDS011;47397;48.194;11.632;2023-05-29T03:22:33;10.00;;;6.22;;
61531;SDS011;47397;48.194;11.632;2023-05-29T03:23:33;10.02;;;7.05;;
61531;SDS011;47397;48.194;11.632;2023-05-29T03:24:34;11.15;;;7.13;;
61531;SDS011;47397;48.194;11.632;2023-05-29T03:25:34;10.90;;;6.88;;
61531;SDS011;47397;48.194;11.632;2023-05-29T03:26:34;11.10;;;6.75;;
61531;SDS011;47397;48.194;11.632;2023-05-29T03:27:35;12.35;;;7.28;;
61531;SDS011;47397;48.194;11.632;2023-05-29T03:28:37;12.20;;;6.63;;
61531;SDS011;47397;48.194;11.632;2023-05-29T03:29:37;10.20;;;7.28;;
61531;SDS011;47397;48.194;11.632;2023-05-29T03:30:37;10.32;;;6.63;;
61531;SDS011;47397;48.194;11.632;2023-05-29T03:31:38;10.63;;;7.32;;
61531;SDS011;47397;48.194;11.632;2023-05-29T03:32:38;10.27;;;7.10;;
61531;SDS011;47397;48.194;11.632;2023-05-29T03:33:39;10.60;;;6.93;;
61531;SDS011;47397;48.194;11.632;2023-05-29T03:34:39;12.60;;;7.00;;
61531;SDS011;47397;48.194;11.632;2023-05-29T03:35:39;10.77;;;6.68;;
61531;SDS011;47397;48.194;11.632;2023-05-29T03:36:40;10.52;;;7.55;;
61531;SDS011;47397;48.194;11.632;2023-05-29T03:37:40;12.13;;;6.88;;
61531;SDS011;47397;48.194;11.632;2023-05-29T03:38:41;15.82;;;7.30;;
61531;SDS011;47397;48.194;11.632;2023-05-29T03:39:41;11.27;;;6.63;;
61531;SDS011;47397;48.194;11.632;2023-05-29T03:40:41;9.75;;;6.75;;
61531;SDS011;47397;48.194;11.632;2023-05-29T03:41:42;10.25;;;6.35;;
61531;SDS011;47397;48.194;11.632;2023-05-29T03:42:42;9.70;;;6.47;;
61531;SDS011;47397;48.194;11.632;2023-05-29T03:43:44;10.60;;;7.10;;
61531;SDS011;47397;48.194;11.632;2023-05-29T03:44:44;11.55;;;6.55;;
61531;SDS011;47397;48.194;11.632;2023-05-29T03:45:45;9.80;;;6.95;;
61531;SDS011;47397;48.194;11.632;2023-05-29T03:46:45;10.98;;;6.45;;
61531;SDS011;47397;48.194;11.632;2023-05-29T03:47:46;10.55;;;6.68;;
61531;SDS011;47397;48.194;11.632;2023-05-29T03:48:46;10.35;;;7.03;;
61531;SDS011;47397;48.194;11.632;2023-05-29T03:49:46;10.48;;;6.93;;
61531;SDS011;47397;48.194;11.632;2023-05-29T03:50:47;12.20;;;6.72;;
61531;SDS011;47397;48.194;11.632;2023-05-29T03:51:48;8.57;;;6.43;;
61531;SDS011;47397;48.194;11.632;2023-05-29T03:52:49;10.32;;;6.43;;
61531;SDS011;47397;48.194;11.632;2023-05-29T03:53:49;9.48;;;6.63;;
61531;SDS011;47397;48.194;11.632;2023-05-29T03:54:49;11.00;;;7.03;;
61531;SDS011;47397;48.194;11.632;2023-05-29T03:55:50;11.40;;;7.05;;
61531;SDS011;47397;48.194;11.632;2023-05-29T03:56:50;12.00;;;6.43;;
61531;SDS011;47397;48.194;11.632;2023-05-29T03:57:51;9.73;;;6.63;;
61531;SDS011;47397;48.194;11.632;2023-05-29T03:58:53;10.35;;;6.60;;
61531;SDS011;47397;48.194;11.632;2023-05-29T03:59:53;8.57;;;6.35;;
61531;SDS011;47397;48.194;11.632;2023-05-29T04:00:54;11.13;;;6.63;;
61531;SDS011;47397;48.194;11.632;2023-05-29T04:01:54;9.20;;;6.68;;
61531;SDS011;47397;48.194;11.632;2023-05-29T04:02:55;10.77;;;6.82;;
61531;SDS011;47397;48.194;11.632;2023-05-29T04:03:55;9.95;;;6.57;;
61531;SDS011;47397;48.194;11.632;2023-05-29T04:04:56;10.88;;;6.85;;
61531;SDS011;47397;48.194;11.632;2023-05-29T04:05:56;10.02;;;6.53;;
61531;SDS011;47397;48.194;11.632;2023-05-29T04:06:56;10.05;;;6.75;;
61531;SDS011;47397;48.194;11.632;2023-05-29T04:07:57;10.52;;;6.85;;
61531;SDS011;47397;48.194;11.632;2023-05-29T04:08:57;11.85;;;6.90;;
61531;SDS011;47397;48.194;11.632;2023-05-29T04:09:58;9.88;;;6.63;;
61531;SDS011;47397;48.194;11.632;2023-05-29T04:10:58;11.13;;;6.38;;
61531;SDS011;47397;48.194;11.632;2023-05-29T04:11:59;11.65;;;6.95;;
61531;SDS011;47397;48.194;11.632;2023-05-29T04:12:59;9.70;;;6.82;;
61531;SDS011;47397;48.194;11.632;2023-05-29T04:14:01;8.63;;;6.32;;
61531;SDS011;47397;48.194;11.632;2023-05-29T04:15:02;9.82;;;6.72;;
61531;SDS011;47397;48.194;11.632;2023-05-29T04:16:04;12.20;;;6.38;;
61531;SDS011;47397;48.194;11.632;2023-05-29T04:17:04;9.63;;;6.15;;
61531;SDS011;47397;48.194;11.632;2023-05-29T04:18:05;10.35;;;6.45;;
61531;SDS011;47397;48.194;11.632;2023-05-29T04:19:05;10.35;;;7.13;;
61531;SDS011;47397;48.194;11.632;2023-05-29T04:20:06;10.45;;;7.03;;
61531;SDS011;47397;48.194;11.632;2023-05-29T04:21:07;10.25;;;6.38;;
61531;SDS011;47397;48.194;11.632;2023-05-29T04:22:07;10.10;;;6.22;;
61531;SDS011;47397;48.194;11.632;2023-05-29T04:23:07;9.13;;;6.20;;
61531;SDS011;47397;48.194;11.632;2023-05-29T04:24:09;9.75;;;6.57;;
61531;SDS011;47397;48.194;11.632;2023-05-29T04:25:09;10.65;;;6.30;;
61531;SDS011;47397;48.194;11.632;2023-05-29T04:26:09;9.43;;;6.72;;
61531;SDS011;47397;48.194;11.632;2023-05-29T04:27:10;9.77;;;6.80;;
61531;SDS011;47397;48.194;11.632;2023-05-29T04:28:10;10.73;;;6.78;;
61531;SDS011;47397;48.194;11.632;2023-05-29T04:29:13;9.18;;;6.20;;
61531;SDS011;47397;48.194;11.632;2023-05-29T04:30:13;9.32;;;6.00;;
61531;SDS011;47397;48.194;11.632;2023-05-29T04:31:14;9.30;;;5.90;;
61531;SDS011;47397;48.194;11.632;2023-05-29T04:32:15;11.25;;;6.35;;
61531;SDS011;47397;48.194;11.632;2023-05-29T04:33:16;11.30;;;6.22;;
61531;SDS011;47397;48.194;11.632;2023-05-29T04:34:17;10.13;;;6.30;;
61531;SDS011;47397;48.194;11.632;2023-05-29T04:35:17;9.35;;;6.10;;
61531;SDS011;47397;48.194;11.632;2023-05-29T04:36:18;9.13;;;6.53;;
61531;SDS011;47397;48.194;11.632;2023-05-29T04:37:18;9.60;;;6.10;;
61531;SDS011;47397;48.194;11.632;2023-05-29T04:38:19;8.77;;;5.75;;
61531;SDS011;47397;48.194;11.632;2023-05-29T04:39:19;8.75;;;5.90;;
61531;SDS011;47397;48.194;11.632;2023-05-29T04:40:19;9.70;;;5.95;;
61531;SDS011;47397;48.194;11.632;2023-05-29T04:41:20;10.13;;;6.38;;
61531;SDS011;47397;48.194;11.632;2023-05-29T04:42:20;10.02;;;6.60;;
61531;SDS011;47397;48.194;11.632;2023-05-29T04:43:21;10.02;;;6.18;;
61531;SDS011;47397;48.194;11.632;2023-05-29T04:44:22;8.80;;;6.55;;
61531;SDS011;47397;48.194;11.632;2023-05-29T04:45:23;10.23;;;5.90;;
61531;SDS011;47397;48.194;11.632;2023-05-29T04:46:23;8.45;;;6.38;;
61531;SDS011;47397;48.194;11.632;2023-05-29T04:47:24;8.60;;;6.35;;
61531;SDS011;47397;48.194;11.632;2023-05-29T04:48:24;9.38;;;6.35;;
61531;SDS011;47397;48.194;11.632;2023-05-29T04:49:24;8.65;;;6.03;;
61531;SDS011;47397;48.194;11.632;2023-05-29T04:50:25;11.35;;;7.10;;
61531;SDS011;47397;48.194;11.632;2023-05-29T04:51:25;8.10;;;5.88;;
61531;SDS011;47397;48.194;11.632;2023-05-29T04:52:26;10.02;;;6.50;;
61531;SDS011;47397;48.194;11.632;2023-05-29T04:53:26;9.95;;;6.50;;
61531;SDS011;47397;48.194;11.632;2023-05-29T04:54:26;9.80;;;6.07;;
61531;SDS011;47397;48.194;11.632;2023-05-29T04:55:27;8.90;;;6.13;;
61531;SDS011;47397;48.194;11.632;2023-05-29T04:56:27;9.43;;;6.22;;
61531;SDS011;47397;48.194;11.632;2023-05-29T04:57:28;8.55;;;5.80;;
61531;SDS011;47397;48.194;11.632;2023-05-29T04:58:28;9.48;;;5.93;;
61531;SDS011;47397;48.194;11.632;2023-05-29T04:59:30;9.90;;;6.65;;
61531;SDS011;47397;48.194;11.632;2023-05-29T05:00:30;11.23;;;6.68;;
61531;SDS011;47397;48.194;11.632;2023-05-29T05:01:31;10.68;;;6.65;;
61531;SDS011;47397;48.194;11.632;2023-05-29T05:02:31;9.40;;;5.75;;
61531;SDS011;47397;48.194;11.632;2023-05-29T05:03:32;9.98;;;6.32;;
61531;SDS011;47397;48.194;11.632;2023-05-29T05:04:32;11.98;;;6.22;;
61531;SDS011;47397;48.194;11.632;2023-05-29T05:05:32;10.38;;;6.30;;
61531;SDS011;47397;48.194;11.632;2023-05-29T05:06:33;10.23;;;6.22;;
61531;SDS011;47397;48.194;11.632;2023-05-29T05:07:33;8.98;;;6.32;;
61531;SDS011;47397;48.194;11.632;2023-05-29T05:08:34;9.65;;;5.75;;
61531;SDS011;47397;48.194;11.632;2023-05-29T05:09:34;10.15;;;6.45;;
61531;SDS011;47397;48.194;11.632;2023-05-29T05:10:34;11.27;;;6.90;;
61531;SDS011;47397;48.194;11.632;2023-05-29T05:11:35;10.18;;;5.93;;
61531;SDS011;47397;48.194;11.632;2023-05-29T05:12:35;10.88;;;6.40;;
61531;SDS011;47397;48.194;11.632;2023-05-29T05:13:36;9.63;;;6.20;;
61531;SDS011;47397;48.194;11.632;2023-05-29T05:14:37;12.40;;;6.25;;
61531;SDS011;47397;48.194;11.632;2023-05-29T05:15:38;10.45;;;6.53;;
61531;SDS011;47397;48.194;11.632;2023-05-29T05:16:38;9.35;;;6.03;;
61531;SDS011;47397;48.194;11.632;2023-05-29T05:17:39;8.95;;;6.22;;
61531;SDS011;47397;48.194;11.632;2023-05-29T05:18:39;9.45;;;5.75;;
61531;SDS011;47397;48.194;11.632;2023-05-29T05:19:39;8.93;;;5.53;;
61531;SDS011;47397;48.194;11.632;2023-05-29T05:20:40;9.77;;;5.53;;
61531;SDS011;47397;48.194;11.632;2023-05-29T05:21:40;9.05;;;5.88;;
61531;SDS011;47397;48.194;11.632;2023-05-29T05:22:41;9.05;;;5.72;;
61531;SDS011;47397;48.194;11.632;2023-05-29T05:23:41;7.63;;;5.65;;
61531;SDS011;47397;48.194;11.632;2023-05-29T05:24:41;7.53;;;5.32;;
61531;SDS011;47397;48.194;11.632;2023-05-29T05:25:42;8.15;;;5.78;;
61531;SDS011;47397;48.194;11.632;2023-05-29T05:26:42;9.85;;;5.68;;
61531;SDS011;47397;48.194;11.632;2023-05-29T05:27:43;7.65;;;5.85;;
61531;SDS011;47397;48.194;11.632;2023-05-29T05:28:43;10.38;;;6.03;;
61531;SDS011;47397;48.194;11.632;2023-05-29T05:29:45;7.10;;;5.70;;
61531;SDS011;47397;48.194;11.632;2023-05-29T05:30:45;9.50;;;6.10;;
61531;SDS011;47397;48.194;11.632;2023-05-29T05:31:45;11.02;;;6.25;;
61531;SDS011;47397;48.194;11.632;2023-05-29T05:32:46;9.10;;;5.85;;
61531;SDS011;47397;48.194;11.632;2023-05-29T05:33:46;7.68;;;5.85;;
61531;SDS011;47397;48.194;11.632;2023-05-29T05:34:47;9.07;;;6.53;;
61531;SDS011;47397;48.194;11.632;2023-05-29T05:35:47;10.93;;;6.22;;
61531;SDS011;47397;48.194;11.632;2023-05-29T05:36:47;8.93;;;6.07;;
61531;SDS011;47397;48.194;11.632;2023-05-29T05:37:48;10.75;;;6.18;;
61531;SDS011;47397;48.194;11.632;2023-05-29T05:38:48;10.65;;;5.68;;
61531;SDS011;47397;48.194;11.632;2023-05-29T05:39:49;10.00;;;6.25;;
61531;SDS011;47397;48.194;11.632;2023-05-29T05:40:49;8.63;;;5.80;;
61531;SDS011;47397;48.194;11.632;2023-05-29T05:41:49;8.43;;;5.72;;
61531;SDS011;47397;48.194;11.632;2023-05-29T05:42:50;9.30;;;5.90;;
61531;SDS011;47397;48.194;11.632;2023-05-29T05:43:50;9.40;;;5.90;;
61531;SDS011;47397;48.194;11.632;2023-05-29T05:44:52;7.38;;;5.75;;
61531;SDS011;47397;48.194;11.632;2023-05-29T05:45:52;8.20;;;5.50;;
61531;SDS011;47397;48.194;11.632;2023-05-29T05:46:53;8.00;;;5.70;;
61531;SDS011;47397;48.194;11.632;2023-05-29T05:47:53;8.90;;;5.85;;
61531;SDS011;47397;48.194;11.632;2023-05-29T05:48:54;9.43;;;5.68;;
61531;SDS011;47397;48.194;11.632;2023-05-29T05:49:54;8.93;;;5.55;;
61531;SDS011;47397;48.194;11.632;2023-05-29T05:50:54;8.93;;;5.43;;
61531;SDS011;47397;48.194;11.632;2023-05-29T05:51:55;8.80;;;5.32;;
61531;SDS011;47397;48.194;11.632;2023-05-29T05:52:55;8.98;;;5.75;;
61531;SDS011;47397;48.194;11.632;2023-05-29T05:53:56;8.38;;;5.43;;
61531;SDS011;47397;48.194;11.632;2023-05-29T05:54:56;6.88;;;5.28;;
61531;SDS011;47397;48.194;11.632;2023-05-29T05:55:56;9.02;;;5.57;;
61531;SDS011;47397;48.194;11.632;2023-05-29T05:56:57;7.00;;;5.50;;
61531;SDS011;47397;48.194;11.632;2023-05-29T05:57:57;8.15;;;5.38;;
61531;SDS011;47397;48.194;11.632;2023-05-29T05:58:58;7.60;;;5.28;;